createdAt,value
2023-04-23T00:01:10.711Z,2.70
2023-04-23T00:05:13.524Z,2.50
2023-04-23T00:09:16.979Z,2.70
2023-04-23T00:13:19.818Z,2.90
2023-04-23T00:17:21.995Z,3.00
2023-04-23T00:21:24.480Z,2.20
2023-04-23T00:25:26.669Z,2.80
2023-04-23T00:29:28.674Z,2.63
2023-04-23T00:33:30.992Z,2.83
2023-04-23T00:37:33.064Z,3.40
2023-04-23T00:41:35.385Z,2.45
2023-04-23T00:45:37.584Z,3.15
2023-04-23T00:49:41.984Z,2.45
2023-04-23T00:53:44.179Z,3.08
2023-04-23T00:57:46.634Z,2.53
2023-04-23T01:01:48.832Z,2.60
2023-04-23T01:05:51.281Z,2.40
2023-04-23T01:09:56.465Z,2.15
2023-04-23T01:13:59.626Z,2.40
2023-04-23T01:18:01.955Z,2.20
2023-04-23T01:22:18.461Z,2.50
2023-04-23T01:26:21.907Z,2.50
2023-04-23T01:30:30.689Z,2.33
2023-04-23T01:34:34.960Z,2.17
2023-04-23T01:38:38.779Z,1.70
2023-04-23T01:42:41.481Z,1.98
2023-04-23T01:46:43.868Z,2.03
2023-04-23T01:50:46.403Z,2.20
2023-04-23T01:54:48.947Z,1.80
2023-04-23T01:58:52.028Z,2.40
2023-04-23T02:02:54.187Z,2.35
2023-04-23T02:06:59.377Z,2.50
2023-04-23T02:11:05.233Z,2.28
2023-04-23T02:15:09.746Z,2.50
2023-04-23T02:19:14.109Z,2.47
2023-04-23T02:23:18.035Z,2.70
2023-04-23T02:27:20.853Z,2.33
2023-04-23T02:31:23.634Z,2.28
2023-04-23T02:35:26.302Z,2.42
2023-04-23T02:39:28.374Z,2.25
2023-04-23T02:43:30.533Z,2.60
2023-04-23T02:47:32.599Z,2.90
2023-04-23T02:51:34.948Z,2.85
2023-04-23T02:55:37.043Z,2.95
2023-04-23T02:59:39.410Z,2.83
2023-04-23T03:03:41.993Z,2.78
2023-04-23T03:07:44.134Z,2.72
2023-04-23T03:11:46.273Z,2.53
2023-04-23T03:15:51.430Z,2.80
2023-04-23T03:19:53.684Z,2.88
2023-04-23T03:23:57.473Z,3.05
2023-04-23T03:27:59.631Z,2.63
2023-04-23T03:32:02.221Z,2.90
2023-04-23T03:36:05.723Z,3.03
2023-04-23T03:40:10.700Z,2.75
2023-04-23T03:44:16.121Z,3.15
2023-04-23T03:48:21.785Z,2.92
2023-04-23T03:52:24.619Z,2.97
2023-04-23T03:56:32.852Z,3.20
2023-04-23T04:01:04.465Z,2.58
2023-04-23T04:05:09.627Z,2.65
2023-04-23T04:09:11.948Z,3.13
2023-04-23T04:13:16.250Z,2.72
2023-04-23T04:17:18.389Z,3.30
2023-04-23T04:21:20.784Z,2.55
2023-04-23T04:25:24.316Z,2.92
2023-04-23T04:29:26.924Z,2.67
2023-04-23T04:33:29.280Z,2.92
2023-04-23T04:37:32.239Z,3.08
2023-04-23T04:41:34.390Z,2.75
2023-04-23T04:45:36.437Z,2.50
2023-04-23T04:49:38.522Z,2.72
2023-04-23T04:53:40.809Z,2.63
2023-04-23T04:57:42.907Z,2.10
2023-04-23T05:01:45.192Z,3.03
2023-04-23T05:05:48.723Z,3.10
2023-04-23T05:09:50.808Z,2.47
2023-04-23T05:13:52.903Z,2.08
2023-04-23T05:17:55.197Z,2.10
2023-04-23T05:21:57.908Z,2.30
2023-04-23T05:26:00.147Z,2.10
2023-04-23T05:30:03.326Z,2.70
2023-04-23T05:34:07.795Z,2.58
2023-04-23T05:38:10.505Z,2.15
2023-04-23T05:42:13.310Z,2.25
2023-04-23T05:46:15.453Z,2.00
2023-04-23T05:50:18.160Z,2.13
2023-04-23T05:54:20.778Z,2.53
2023-04-23T05:58:23.469Z,2.40
2023-04-23T06:02:25.843Z,2.85
2023-04-23T06:06:28.141Z,2.22
2023-04-23T06:10:30.402Z,2.60
2023-04-23T06:14:32.481Z,2.10
2023-04-23T06:18:35.765Z,2.28
2023-04-23T06:22:38.205Z,2.22
2023-04-23T06:26:40.530Z,2.45
2023-04-23T06:30:49.456Z,2.40
2023-04-23T06:35:00.791Z,3.25
2023-04-23T06:39:04.005Z,3.78
2023-04-23T06:43:08.129Z,3.80
2023-04-23T06:47:42.405Z,2.25
2023-04-23T06:51:44.689Z,2.58
2023-04-23T06:55:47.152Z,2.70
2023-04-23T06:59:49.626Z,2.58
2023-04-23T07:03:54.681Z,3.05
2023-04-23T07:07:56.942Z,2.92
2023-04-23T07:11:59.442Z,2.78
2023-04-23T07:16:01.484Z,2.92
2023-04-23T07:20:08.793Z,2.58
2023-04-23T07:24:11.379Z,3.80
2023-04-23T07:28:13.523Z,3.28
2023-04-23T07:32:16.257Z,3.00
2023-04-23T07:36:18.619Z,2.80
2023-04-23T07:40:22.498Z,2.65
2023-04-23T07:44:26.052Z,2.63
2023-04-23T07:48:28.159Z,3.05
2023-04-23T07:52:30.967Z,3.15
2023-04-23T07:56:33.228Z,3.28
2023-04-23T08:00:36.348Z,3.78
2023-04-23T08:04:38.763Z,4.15
2023-04-23T08:08:41.277Z,3.55
2023-04-23T08:12:44.536Z,3.95
2023-04-23T08:16:46.843Z,4.20
2023-04-23T08:20:50.232Z,3.85
2023-04-23T08:24:52.586Z,3.97
2023-04-23T08:28:55.711Z,3.92
2023-04-23T08:32:59.753Z,4.15
2023-04-23T08:37:04.800Z,3.90
2023-04-23T08:41:12.071Z,3.70
2023-04-23T08:45:16.392Z,3.88
2023-04-23T08:53:25.992Z,3.40
2023-04-23T08:57:29.014Z,3.63
2023-04-23T09:01:31.960Z,3.60
2023-04-23T09:05:35.188Z,3.03
2023-04-23T09:09:40.954Z,3.65
2023-04-23T09:13:43.699Z,4.35
2023-04-23T09:17:47.287Z,4.32
2023-04-23T09:21:51.569Z,5.13
2023-04-23T09:25:54.132Z,4.18
2023-04-23T09:29:57.514Z,4.15
2023-04-23T09:34:00.386Z,2.70
2023-04-23T09:38:08.226Z,3.13
2023-04-23T09:42:13.807Z,3.58
2023-04-23T09:46:16.210Z,2.08
2023-04-23T09:50:21.115Z,2.15
2023-04-23T09:54:24.600Z,1.73
2023-04-23T09:58:28.870Z,1.38
2023-04-23T10:02:43.629Z,1.70
2023-04-23T10:07:13.825Z,1.90
2023-04-23T10:11:20.777Z,1.85
2023-04-23T10:19:29.216Z,1.60
2023-04-23T10:23:33.489Z,1.30
2023-04-23T10:31:57.061Z,1.48
2023-04-23T10:35:59.843Z,1.20
2023-04-23T10:40:09.843Z,1.50
2023-04-23T10:44:16.042Z,1.65
2023-04-23T10:48:18.645Z,1.25
2023-04-23T10:52:24.409Z,1.80
2023-04-23T10:56:28.649Z,1.40
2023-04-23T11:00:51.685Z,1.30
2023-04-23T11:04:57.212Z,1.40
2023-04-23T11:09:00.227Z,1.70
2023-04-23T11:13:24.975Z,1.70
2023-04-23T11:17:33.612Z,1.20
2023-04-23T11:21:54.853Z,1.50
2023-04-23T11:25:57.833Z,1.60
2023-04-23T11:30:00.369Z,1.43
2023-04-23T11:34:02.901Z,1.50
2023-04-23T11:38:09.508Z,1.35
2023-04-23T11:42:13.363Z,1.83
2023-04-23T11:46:17.084Z,1.67
2023-04-23T11:50:20.784Z,1.77
2023-04-23T11:58:30.016Z,1.50
2023-04-23T12:02:32.376Z,1.85
2023-04-23T12:06:34.648Z,2.00
2023-04-23T12:10:50.321Z,2.22
2023-04-23T12:15:04.057Z,2.15
2023-04-23T12:23:10.908Z,1.60
2023-04-23T12:27:20.365Z,1.52
2023-04-23T12:31:30.959Z,2.10
2023-04-23T12:36:00.982Z,1.75
2023-04-23T12:40:07.150Z,1.60
2023-04-23T12:44:09.188Z,1.73
2023-04-23T12:48:12.398Z,2.28
2023-04-23T12:52:14.509Z,1.67
2023-04-23T12:56:16.684Z,1.75
2023-04-23T13:00:18.916Z,1.63
2023-04-23T13:04:21.111Z,1.63
2023-04-23T13:08:23.110Z,1.35
2023-04-23T13:12:25.869Z,1.83
2023-04-23T13:16:28.082Z,1.30
2023-04-23T13:20:30.319Z,1.70
2023-04-23T13:24:32.655Z,1.85
2023-04-23T13:28:36.290Z,1.48
2023-04-23T13:32:38.374Z,1.30
2023-04-23T13:36:43.233Z,1.10
2023-04-23T13:40:45.318Z,1.25
2023-04-23T13:44:47.452Z,1.17
2023-04-23T13:48:49.546Z,1.90
2023-04-23T13:52:51.690Z,1.42
2023-04-23T13:56:57.295Z,1.20
2023-04-23T14:00:59.465Z,1.17
2023-04-23T14:05:03.838Z,1.20
2023-04-23T14:09:06.020Z,1.25
2023-04-23T14:13:08.228Z,1.30
2023-04-23T14:17:10.345Z,1.30
2023-04-23T14:21:14.308Z,1.60
2023-04-23T14:25:41.425Z,1.30
2023-04-23T14:29:50.824Z,1.20
2023-04-23T14:33:53.120Z,1.00
2023-04-23T14:37:55.443Z,1.00
2023-04-23T14:41:57.534Z,1.00
2023-04-23T14:45:59.703Z,1.00
2023-04-23T14:50:01.968Z,1.27
2023-04-23T14:54:04.973Z,1.45
2023-04-23T14:58:08.403Z,1.52
2023-04-23T15:02:12.320Z,0.93
2023-04-23T15:06:14.970Z,1.00
2023-04-23T15:10:17.195Z,1.00
2023-04-23T15:14:31.249Z,1.05
2023-04-23T15:18:34.446Z,1.27
2023-04-23T15:22:36.753Z,1.65
2023-04-23T15:26:39.643Z,1.00
2023-04-23T15:30:46.056Z,0.90
2023-04-23T15:34:48.432Z,0.80
2023-04-23T15:38:50.704Z,0.80
2023-04-23T15:42:53.544Z,1.48
2023-04-23T15:46:55.924Z,1.02
2023-04-23T15:50:58.208Z,1.75
2023-04-23T15:55:01.057Z,1.50
2023-04-23T15:59:03.271Z,1.30
2023-04-23T16:03:06.727Z,1.05
2023-04-23T16:07:09.626Z,1.27
2023-04-23T16:11:13.509Z,1.13
2023-04-23T16:15:15.765Z,1.85
2023-04-23T16:19:18.003Z,1.20
2023-04-23T16:23:20.691Z,1.45
2023-04-23T16:27:23.570Z,1.20
2023-04-23T16:31:25.844Z,1.30
2023-04-23T16:35:28.162Z,1.10
2023-04-23T16:39:30.542Z,1.27
2023-04-23T16:43:32.678Z,1.50
2023-04-23T16:47:35.471Z,1.50
2023-04-23T16:51:37.692Z,1.50
2023-04-23T16:55:39.981Z,1.50
2023-04-23T16:59:42.937Z,1.70
2023-04-23T17:03:47.837Z,1.25
2023-04-23T17:07:53.496Z,1.40
2023-04-23T17:11:56.804Z,1.58
2023-04-23T17:15:59.673Z,2.03
2023-04-23T17:20:03.953Z,1.30
2023-04-23T17:24:06.344Z,1.70
2023-04-23T17:28:08.646Z,1.40
2023-04-23T17:32:10.799Z,1.60
2023-04-23T17:36:13.417Z,1.83
2023-04-23T17:40:16.148Z,2.72
2023-04-23T17:44:18.786Z,3.95
2023-04-23T17:48:23.100Z,3.55
2023-04-23T17:52:25.292Z,2.15
2023-04-23T17:56:27.442Z,1.92
2023-04-23T18:00:29.763Z,2.65
2023-04-23T18:04:33.793Z,2.50
2023-04-23T18:08:36.523Z,2.33
2023-04-23T18:12:39.569Z,2.30
2023-04-23T18:16:41.788Z,2.22
2023-04-23T18:20:45.215Z,2.50
2023-04-23T18:24:47.783Z,2.57
2023-04-23T18:28:50.107Z,2.80
2023-04-23T18:33:19.694Z,2.47
2023-04-23T18:37:30.966Z,2.40
2023-04-23T18:41:34.681Z,3.35
2023-04-23T18:45:37.057Z,3.45
2023-04-23T18:49:45.865Z,3.58
2023-04-23T18:53:50.036Z,3.70
2023-04-23T18:57:52.257Z,5.68
2023-04-23T19:01:56.283Z,6.05
2023-04-23T19:05:58.915Z,3.75
2023-04-23T19:10:01.637Z,3.38
2023-04-23T19:14:05.316Z,3.05
2023-04-23T19:18:08.085Z,3.80
2023-04-23T19:22:13.242Z,3.50
2023-04-23T19:26:17.282Z,3.17
2023-04-23T19:30:22.001Z,3.40
2023-04-23T19:34:27.034Z,4.40
2023-04-23T19:38:30.928Z,3.25
2023-04-23T19:42:35.074Z,2.50
2023-04-23T19:46:37.365Z,2.25
2023-04-23T19:50:39.870Z,1.67
2023-04-23T19:54:43.990Z,2.05
2023-04-23T19:58:46.938Z,1.77
2023-04-23T20:02:49.903Z,1.83
2023-04-23T20:06:53.720Z,1.73
2023-04-23T20:10:58.242Z,1.73
2023-04-23T20:15:02.333Z,1.58
2023-04-23T20:19:05.640Z,1.63
2023-04-23T20:23:08.562Z,1.33
2023-04-23T20:27:11.275Z,1.80
2023-04-23T20:31:14.696Z,1.38
2023-04-23T20:35:16.737Z,1.80
2023-04-23T20:39:24.107Z,1.88
2023-04-23T20:43:26.894Z,2.05
2023-04-23T20:47:29.384Z,1.65
2023-04-23T20:51:34.893Z,1.98
2023-04-23T20:55:37.019Z,1.60
2023-04-23T20:59:39.599Z,1.83
2023-04-23T21:03:42.006Z,1.70
2023-04-23T21:07:44.587Z,1.90
2023-04-23T21:11:46.856Z,1.70
2023-04-23T21:15:49.254Z,2.28
2023-04-23T21:19:51.800Z,1.90
2023-04-23T21:23:54.108Z,1.60
2023-04-23T21:27:57.108Z,2.10
2023-04-23T21:31:59.379Z,1.90
2023-04-23T21:36:01.569Z,1.83
2023-04-23T21:40:04.874Z,1.92
2023-04-23T21:44:11.137Z,1.50
2023-04-23T21:48:15.178Z,1.48
2023-04-23T21:52:17.492Z,2.55
2023-04-23T21:56:19.712Z,2.05
2023-04-23T22:00:23.874Z,1.80
2023-04-23T22:04:27.923Z,2.15
2023-04-23T22:08:33.096Z,1.67
2023-04-23T22:12:35.307Z,2.10
2023-04-23T22:16:37.951Z,1.88
2023-04-23T22:20:40.211Z,1.92
2023-04-23T22:24:42.295Z,2.10
2023-04-23T22:28:44.762Z,2.05
2023-04-23T22:32:47.224Z,1.90
2023-04-23T22:36:49.285Z,2.33
2023-04-23T22:40:51.393Z,1.60
2023-04-23T22:44:53.481Z,1.63
2023-04-23T22:48:56.092Z,2.03
2023-04-23T22:52:58.252Z,2.28
2023-04-23T22:57:01.178Z,2.15
2023-04-23T23:01:03.618Z,1.70
2023-04-23T23:05:13.208Z,2.13
2023-04-23T23:09:18.116Z,1.90
2023-04-23T23:13:20.253Z,1.90
2023-04-23T23:17:22.382Z,2.05
2023-04-23T23:21:25.188Z,2.20
2023-04-23T23:25:27.324Z,1.90
2023-04-23T23:29:29.383Z,1.77
2023-04-23T23:33:31.815Z,1.73
2023-04-23T23:37:34.244Z,1.90
2023-04-23T23:41:36.473Z,1.90
2023-04-23T23:45:39.031Z,1.60
2023-04-23T23:49:41.965Z,1.92
2023-04-23T23:53:44.301Z,1.38
2023-04-23T23:57:46.491Z,1.50
